createdAt,value
2023-02-19T00:00:01.777Z,83.25
2023-02-19T00:02:30.258Z,83.78
2023-02-19T00:04:58.432Z,83.82
2023-02-19T00:07:26.703Z,83.89
2023-02-19T00:09:55.083Z,82.05
2023-02-19T00:12:23.374Z,84.23
2023-02-19T00:14:51.734Z,85.31
2023-02-19T00:17:20.114Z,85.26
2023-02-19T00:19:50.848Z,85.29
2023-02-19T00:22:19.063Z,85.28
2023-02-19T00:24:49.296Z,85.01
2023-02-19T00:27:17.519Z,86.06
2023-02-19T00:29:45.895Z,86.77
2023-02-19T00:32:14.281Z,86.39
2023-02-19T00:34:42.450Z,86.87
2023-02-19T00:37:10.829Z,84.24
2023-02-19T00:39:39.014Z,84.61
2023-02-19T00:42:07.175Z,85.57
2023-02-19T00:44:35.452Z,87.23
2023-02-19T00:47:03.641Z,88.39
2023-02-19T00:49:32.519Z,86.65
2023-02-19T00:52:01.204Z,87.88
2023-02-19T00:54:31.746Z,88.91
2023-02-19T00:57:00.295Z,89.56
2023-02-19T00:59:28.488Z,89.67
2023-02-19T01:01:56.793Z,89.46
2023-02-19T01:04:24.924Z,87.98
2023-02-19T01:06:53.211Z,87.31
2023-02-19T01:09:21.605Z,88.97
2023-02-19T01:11:49.862Z,90.57
2023-02-19T01:14:18.957Z,91.56
2023-02-19T01:16:47.232Z,90.93
2023-02-19T01:19:15.524Z,89.61
2023-02-19T01:21:44.306Z,89.78
2023-02-19T01:24:12.611Z,91.41
2023-02-19T01:26:40.955Z,91.83
2023-02-19T01:29:10.050Z,91.56
2023-02-19T01:31:41.208Z,89.96
2023-02-19T01:34:11.879Z,89.86
2023-02-19T01:36:40.000Z,90.60
2023-02-19T01:39:11.254Z,90.16
2023-02-19T01:41:41.679Z,88.97
2023-02-19T01:44:15.986Z,89.70
2023-02-19T01:46:46.572Z,90.53
2023-02-19T01:49:27.904Z,90.61
2023-02-19T01:52:01.776Z,89.24
2023-02-19T01:54:35.298Z,88.92
2023-02-19T01:57:10.703Z,89.08
2023-02-19T01:59:40.032Z,88.22
2023-02-19T02:02:09.334Z,89.39
2023-02-19T02:04:38.033Z,88.62
2023-02-19T02:07:29.563Z,87.66
2023-02-19T02:10:17.490Z,88.99
2023-02-19T02:12:46.080Z,90.71
2023-02-19T02:15:16.671Z,90.66
2023-02-19T02:17:59.037Z,89.99
2023-02-19T02:20:56.473Z,90.05
2023-02-19T02:23:55.883Z,90.20
2023-02-19T02:26:39.411Z,89.15
2023-02-19T02:29:44.142Z,89.34
2023-02-19T02:32:20.046Z,91.77
2023-02-19T02:34:57.957Z,92.21
2023-02-19T02:37:30.886Z,92.57
2023-02-19T02:40:00.694Z,93.03
2023-02-19T02:42:30.404Z,93.73
2023-02-19T02:45:35.007Z,95.39
2023-02-19T02:48:12.317Z,95.31
2023-02-19T02:50:55.242Z,94.31
2023-02-19T02:54:08.263Z,93.77
2023-02-19T02:56:37.748Z,93.95
2023-02-19T02:59:09.081Z,92.33
2023-02-19T03:02:00.689Z,93.20
2023-02-19T03:05:06.802Z,93.23
2023-02-19T03:07:39.580Z,91.81
2023-02-19T03:10:12.567Z,91.36
2023-02-19T03:13:00.306Z,91.48
2023-02-19T03:15:53.150Z,91.25
2023-02-19T03:18:42.420Z,90.45
2023-02-19T03:21:11.990Z,90.18
2023-02-19T03:24:01.092Z,90.20
2023-02-19T03:26:31.931Z,90.12
2023-02-19T03:29:22.121Z,90.11
2023-02-19T03:31:55.374Z,90.20
2023-02-19T03:34:34.686Z,90.10
2023-02-19T03:37:15.814Z,90.32
2023-02-19T03:39:47.474Z,90.27
2023-02-19T03:42:20.977Z,89.43
2023-02-19T03:45:25.927Z,88.76
2023-02-19T03:48:29.923Z,88.20
2023-02-19T03:51:33.120Z,87.47
2023-02-19T03:54:18.703Z,87.14
2023-02-19T03:57:15.235Z,86.77
2023-02-19T04:00:03.683Z,86.11
2023-02-19T04:02:59.712Z,85.38
2023-02-19T04:05:32.284Z,85.69
2023-02-19T04:08:08.987Z,85.70
2023-02-19T04:10:41.130Z,85.42
2023-02-19T04:13:20.885Z,86.51
2023-02-19T04:15:53.866Z,86.03
2023-02-19T04:18:28.797Z,85.97
2023-02-19T04:20:59.278Z,86.46
2023-02-19T04:23:30.739Z,86.82
2023-02-19T04:26:01.502Z,86.72
2023-02-19T04:28:29.983Z,86.40
2023-02-19T04:30:58.278Z,86.47
2023-02-19T04:33:26.430Z,85.81
2023-02-19T04:35:54.808Z,86.38
2023-02-19T04:38:23.088Z,87.29
2023-02-19T04:40:51.670Z,86.59
2023-02-19T04:43:20.353Z,86.84
2023-02-19T04:45:48.431Z,86.55
2023-02-19T04:48:16.703Z,86.59
2023-02-19T04:50:44.974Z,86.56
2023-02-19T04:53:13.170Z,86.67
2023-02-19T04:55:41.426Z,87.15
2023-02-19T04:58:09.555Z,86.94
2023-02-19T05:00:37.762Z,87.46
2023-02-19T05:03:06.052Z,87.15
2023-02-19T05:05:35.361Z,87.31
2023-02-19T05:08:04.748Z,86.89
2023-02-19T05:10:33.845Z,86.36
2023-02-19T05:13:02.134Z,87.00
2023-02-19T05:15:30.523Z,86.78
2023-02-19T05:17:58.812Z,86.60
2023-02-19T05:20:26.947Z,86.48
2023-02-19T05:22:55.242Z,86.13
2023-02-19T05:25:23.397Z,86.69
2023-02-19T05:28:11.538Z,86.61
2023-02-19T05:30:39.614Z,86.50
2023-02-19T05:33:07.783Z,85.65
2023-02-19T05:35:44.794Z,85.59
2023-02-19T05:38:13.660Z,86.08
2023-02-19T05:40:42.852Z,86.34
2023-02-19T05:43:14.208Z,86.96
2023-02-19T05:45:43.883Z,86.59
2023-02-19T05:48:12.898Z,86.32
2023-02-19T05:50:41.175Z,86.95
2023-02-19T05:53:14.981Z,87.13
2023-02-19T05:55:43.257Z,88.66
2023-02-19T05:58:11.433Z,89.03
2023-02-19T06:00:39.624Z,88.32
2023-02-19T06:03:07.985Z,88.91
2023-02-19T06:05:37.696Z,88.98
2023-02-19T06:08:05.969Z,90.15
2023-02-19T06:10:34.782Z,89.24
2023-02-19T06:13:02.939Z,89.29
2023-02-19T06:15:31.103Z,88.81
2023-02-19T06:17:59.380Z,88.72
2023-02-19T06:20:28.476Z,88.48
2023-02-19T06:22:56.748Z,89.25
2023-02-19T06:25:25.237Z,91.55
2023-02-19T06:27:53.425Z,92.02
2023-02-19T06:30:21.629Z,91.35
2023-02-19T06:32:52.723Z,91.45
2023-02-19T06:35:21.002Z,89.66
2023-02-19T06:37:49.999Z,88.27
2023-02-19T06:40:18.276Z,87.74
2023-02-19T06:42:46.855Z,86.97
2023-02-19T06:45:17.997Z,85.22
2023-02-19T06:47:46.478Z,84.33
2023-02-19T06:50:14.657Z,83.31
2023-02-19T06:52:42.927Z,82.63
2023-02-19T06:55:11.516Z,83.24
2023-02-19T06:57:39.686Z,83.99
2023-02-19T07:00:08.837Z,83.96
2023-02-19T07:02:37.053Z,84.03
2023-02-19T07:05:06.057Z,84.65
2023-02-19T07:07:34.462Z,84.96
2023-02-19T07:10:02.802Z,85.92
2023-02-19T07:12:30.909Z,84.22
2023-02-19T07:14:59.042Z,81.16
2023-02-19T07:17:27.215Z,78.90
2023-02-19T07:19:55.493Z,78.71
2023-02-19T07:22:23.620Z,78.03
2023-02-19T07:24:51.839Z,79.67
2023-02-19T07:27:20.434Z,77.50
2023-02-19T07:29:48.703Z,73.66
2023-02-19T07:32:16.864Z,73.53
2023-02-19T07:34:44.941Z,68.42
2023-02-19T07:37:13.119Z,66.37
2023-02-19T07:39:41.399Z,63.95
2023-02-19T07:42:09.554Z,58.98
2023-02-19T07:44:39.315Z,55.55
2023-02-19T07:47:07.711Z,54.99
2023-02-19T07:49:36.023Z,53.65
2023-02-19T07:52:04.233Z,51.99
2023-02-19T07:54:32.498Z,54.20
2023-02-19T07:57:00.605Z,54.01
2023-02-19T07:59:28.710Z,55.58
2023-02-19T08:02:15.466Z,55.75
2023-02-19T08:04:43.592Z,56.87
2023-02-19T08:07:11.786Z,58.11
2023-02-19T08:09:40.061Z,56.44
2023-02-19T08:12:31.606Z,58.01
2023-02-19T08:14:59.753Z,55.14
2023-02-19T08:17:30.527Z,55.79
2023-02-19T08:19:58.820Z,56.18
2023-02-19T08:22:26.940Z,57.92
2023-02-19T08:24:55.043Z,57.87
2023-02-19T08:27:23.184Z,58.64
2023-02-19T08:29:51.774Z,58.23
2023-02-19T08:32:20.191Z,55.16
2023-02-19T08:34:48.273Z,54.70
2023-02-19T08:37:17.419Z,53.83
2023-02-19T08:39:45.531Z,51.53
2023-02-19T08:42:13.735Z,51.37
2023-02-19T08:44:41.814Z,51.46
2023-02-19T08:47:09.933Z,50.06
2023-02-19T08:49:39.916Z,48.47
2023-02-19T08:52:08.229Z,49.54
2023-02-19T08:54:37.314Z,48.90
2023-02-19T08:57:05.635Z,48.80
2023-02-19T08:59:34.247Z,48.80
2023-02-19T09:02:02.422Z,50.01
2023-02-19T09:04:30.643Z,49.63
2023-02-19T09:06:59.234Z,50.09
2023-02-19T09:09:27.420Z,48.62
2023-02-19T09:11:55.498Z,48.55
2023-02-19T09:14:23.645Z,50.73
2023-02-19T09:16:51.825Z,50.20
2023-02-19T09:19:19.860Z,52.13
2023-02-19T09:21:48.342Z,50.37
2023-02-19T09:24:16.685Z,51.14
2023-02-19T09:26:44.953Z,50.25
2023-02-19T09:29:13.336Z,53.28
2023-02-19T09:31:41.829Z,52.66
2023-02-19T09:34:11.921Z,52.08
2023-02-19T09:36:40.664Z,52.42
2023-02-19T09:39:10.651Z,53.78
2023-02-19T09:41:46.664Z,53.25
2023-02-19T09:44:36.692Z,53.04
2023-02-19T09:47:13.473Z,52.28
2023-02-19T09:49:50.152Z,53.47
2023-02-19T09:52:45.379Z,51.10
2023-02-19T09:55:17.273Z,52.39
2023-02-19T09:57:47.326Z,53.86
2023-02-19T10:00:27.859Z,54.76
2023-02-19T10:03:36.155Z,54.64
2023-02-19T10:06:20.551Z,53.96
2023-02-19T10:08:51.505Z,53.12
2023-02-19T10:11:20.504Z,52.34
2023-02-19T10:14:01.944Z,53.87
2023-02-19T10:16:31.324Z,53.17
2023-02-19T10:18:59.449Z,53.57
2023-02-19T10:21:28.776Z,54.86
2023-02-19T10:24:01.828Z,54.59
2023-02-19T10:26:35.294Z,54.33
2023-02-19T10:29:05.209Z,56.02
2023-02-19T10:31:33.718Z,56.62
2023-02-19T10:34:02.536Z,56.51
2023-02-19T10:36:42.662Z,55.16
2023-02-19T10:39:42.827Z,53.44
2023-02-19T10:42:22.495Z,54.98
2023-02-19T10:44:58.704Z,55.38
2023-02-19T10:47:29.362Z,55.38
2023-02-19T10:50:03.400Z,54.26
2023-02-19T10:52:36.353Z,54.70
2023-02-19T10:55:28.441Z,53.26
2023-02-19T10:57:57.959Z,54.05
2023-02-19T11:00:30.538Z,54.36
2023-02-19T11:03:24.004Z,53.22
2023-02-19T11:06:00.133Z,53.99
2023-02-19T11:08:29.395Z,53.76
2023-02-19T11:10:57.534Z,53.86
2023-02-19T11:13:38.209Z,54.87
2023-02-19T11:16:06.565Z,55.05
2023-02-19T11:18:36.457Z,54.85
2023-02-19T11:21:07.453Z,56.08
2023-02-19T11:23:38.679Z,57.17
2023-02-19T11:26:19.332Z,56.74
2023-02-19T11:28:59.918Z,57.80
2023-02-19T11:31:32.189Z,57.86
2023-02-19T11:34:30.001Z,58.20
2023-02-19T11:37:10.355Z,58.16
2023-02-19T11:39:41.162Z,58.52
2023-02-19T11:42:14.902Z,59.17
2023-02-19T11:45:07.436Z,60.06
2023-02-19T11:48:22.296Z,58.88
2023-02-19T11:51:06.037Z,59.89
2023-02-19T11:53:37.584Z,60.13
2023-02-19T11:56:33.827Z,60.99
2023-02-19T11:59:17.773Z,60.97
2023-02-19T12:01:51.607Z,61.19
2023-02-19T12:04:51.222Z,62.64
2023-02-19T12:07:46.767Z,62.19
2023-02-19T12:10:15.326Z,63.71
2023-02-19T12:12:55.544Z,64.26
2023-02-19T12:15:59.388Z,64.77
2023-02-19T12:18:42.786Z,65.73
2023-02-19T12:21:35.807Z,66.28
2023-02-19T12:24:16.059Z,65.65
2023-02-19T12:27:05.858Z,66.33
2023-02-19T12:29:49.020Z,67.51
2023-02-19T12:32:35.769Z,67.80
2023-02-19T12:35:24.666Z,67.91
2023-02-19T12:38:22.910Z,67.78
2023-02-19T12:41:14.846Z,68.08
2023-02-19T12:43:59.200Z,67.99
2023-02-19T12:46:38.574Z,69.79
2023-02-19T12:49:25.520Z,70.06
2023-02-19T12:52:24.943Z,69.57
2023-02-19T12:54:57.615Z,68.75
2023-02-19T12:57:30.286Z,68.77
2023-02-19T13:00:26.943Z,68.75
2023-02-19T13:03:10.677Z,69.27
2023-02-19T13:05:50.021Z,70.47
2023-02-19T13:08:34.133Z,70.34
2023-02-19T13:11:27.825Z,71.12
2023-02-19T13:14:00.420Z,71.66
2023-02-19T13:16:35.029Z,72.51
2023-02-19T13:19:04.857Z,73.47
2023-02-19T13:21:55.831Z,74.43
2023-02-19T13:24:28.188Z,75.27
2023-02-19T13:27:05.525Z,76.14
2023-02-19T13:29:53.938Z,76.16
2023-02-19T13:32:56.377Z,75.34
2023-02-19T13:35:27.393Z,76.05
2023-02-19T13:38:00.361Z,75.53
2023-02-19T13:40:33.462Z,75.63
2023-02-19T13:43:06.347Z,76.33
2023-02-19T13:45:40.252Z,76.56
2023-02-19T13:48:23.694Z,77.23
2023-02-19T13:51:21.755Z,77.20
2023-02-19T13:53:56.038Z,77.37
2023-02-19T13:56:30.320Z,77.27
2023-02-19T13:59:23.144Z,77.40
2023-02-19T14:01:54.181Z,77.84
2023-02-19T14:04:25.241Z,78.49
2023-02-19T14:07:06.201Z,76.79
2023-02-19T14:09:37.858Z,77.61
2023-02-19T14:12:06.330Z,78.29
2023-02-19T14:14:36.060Z,77.95
2023-02-19T14:17:23.891Z,78.15
2023-02-19T14:19:59.416Z,78.35
2023-02-19T14:22:46.256Z,77.96
2023-02-19T14:25:33.197Z,78.36
2023-02-19T14:28:27.211Z,77.95
2023-02-19T14:31:18.311Z,78.18
2023-02-19T14:33:59.946Z,77.94
2023-02-19T14:36:53.176Z,77.43
2023-02-19T14:39:26.475Z,77.46
2023-02-19T14:41:59.321Z,77.29
2023-02-19T14:44:32.169Z,77.71
2023-02-19T14:47:07.298Z,77.20
2023-02-19T14:49:51.683Z,77.00
2023-02-19T14:52:41.131Z,77.79
2023-02-19T14:55:13.375Z,77.63
2023-02-19T14:57:46.127Z,77.56
2023-02-19T15:00:23.760Z,77.27
2023-02-19T15:02:55.895Z,77.70
2023-02-19T15:05:39.397Z,77.56
2023-02-19T15:08:18.786Z,77.56
2023-02-19T15:10:48.553Z,76.71
2023-02-19T15:13:25.169Z,77.17
2023-02-19T15:15:55.403Z,76.48
2023-02-19T15:18:26.117Z,77.87
2023-02-19T15:21:03.812Z,78.22
2023-02-19T15:23:35.973Z,78.22
2023-02-19T15:26:04.371Z,77.78
2023-02-19T15:28:34.501Z,77.82
2023-02-19T15:31:03.508Z,78.71
2023-02-19T15:33:32.217Z,78.46
2023-02-19T15:36:04.659Z,79.04
2023-02-19T15:38:36.011Z,79.99
2023-02-19T15:41:05.305Z,79.32
2023-02-19T15:43:45.544Z,78.66
2023-02-19T15:46:32.122Z,79.70
2023-02-19T15:49:03.225Z,80.53
2023-02-19T15:51:38.256Z,80.21
2023-02-19T15:54:22.279Z,80.21
2023-02-19T15:56:59.562Z,80.11
2023-02-19T15:59:40.652Z,80.48
2023-02-19T16:02:13.737Z,82.35
2023-02-19T16:04:45.727Z,81.70
2023-02-19T16:07:28.093Z,81.74
2023-02-19T16:10:21.221Z,82.26
2023-02-19T16:12:57.373Z,82.02
2023-02-19T16:15:27.736Z,81.35
2023-02-19T16:17:57.374Z,81.86
2023-02-19T16:20:30.278Z,82.27
2023-02-19T16:23:12.024Z,82.05
2023-02-19T16:25:44.921Z,82.62
2023-02-19T16:28:21.180Z,83.16
2023-02-19T16:30:59.890Z,83.87
2023-02-19T16:33:36.893Z,83.15
2023-02-19T16:36:41.494Z,82.70
2023-02-19T16:39:09.683Z,83.20
2023-02-19T16:41:40.930Z,82.93
2023-02-19T16:44:21.489Z,82.46
2023-02-19T16:46:54.474Z,82.98
2023-02-19T16:49:23.987Z,82.25
2023-02-19T16:51:52.469Z,83.14
2023-02-19T16:54:20.626Z,83.82
2023-02-19T16:56:49.005Z,83.54
2023-02-19T16:59:17.176Z,83.26
2023-02-19T17:01:45.433Z,84.19
2023-02-19T17:04:16.085Z,84.20
2023-02-19T17:06:45.801Z,85.12
2023-02-19T17:09:13.969Z,84.79
2023-02-19T17:11:42.142Z,85.17
2023-02-19T17:14:10.413Z,85.13
2023-02-19T17:16:41.408Z,84.90
2023-02-19T17:19:13.270Z,84.22
2023-02-19T17:21:41.883Z,83.45
2023-02-19T17:24:10.076Z,83.59
2023-02-19T17:26:38.350Z,83.64
2023-02-19T17:29:14.149Z,85.80
2023-02-19T17:31:42.403Z,88.06
2023-02-19T17:34:11.538Z,88.18
2023-02-19T17:36:41.184Z,87.37
2023-02-19T17:39:15.982Z,87.34
2023-02-19T17:41:44.227Z,87.50
2023-02-19T17:44:12.358Z,86.32
2023-02-19T17:46:41.259Z,86.51
2023-02-19T17:49:12.769Z,85.87
2023-02-19T17:51:40.975Z,85.18
2023-02-19T17:54:09.646Z,85.34
2023-02-19T17:56:40.119Z,84.81
2023-02-19T17:59:08.235Z,84.26
2023-02-19T18:01:36.531Z,84.18
2023-02-19T18:04:05.560Z,84.17
2023-02-19T18:06:34.725Z,83.77
2023-02-19T18:09:03.403Z,84.23
2023-02-19T18:11:31.635Z,83.96
2023-02-19T18:13:59.859Z,84.41
2023-02-19T18:16:28.284Z,84.93
2023-02-19T18:18:58.662Z,85.29
2023-02-19T18:21:27.053Z,83.97
2023-02-19T18:23:55.240Z,86.55
2023-02-19T18:26:23.621Z,86.33
2023-02-19T18:28:51.883Z,86.41
2023-02-19T18:31:20.243Z,86.65
2023-02-19T18:33:48.632Z,84.98
2023-02-19T18:36:17.570Z,84.27
2023-02-19T18:38:46.357Z,83.97
2023-02-19T18:41:19.569Z,83.42
2023-02-19T18:43:48.949Z,83.69
2023-02-19T18:46:21.519Z,83.25
2023-02-19T18:48:49.649Z,84.68
2023-02-19T18:51:17.809Z,84.64
2023-02-19T18:53:46.312Z,84.48
2023-02-19T18:56:14.575Z,83.24
2023-02-19T18:58:45.638Z,83.63
2023-02-19T19:01:14.215Z,83.50
2023-02-19T19:03:42.587Z,83.36
2023-02-19T19:06:10.753Z,83.10
2023-02-19T19:08:39.132Z,82.97
2023-02-19T19:11:09.797Z,84.21
2023-02-19T19:13:38.449Z,84.55
2023-02-19T19:16:11.748Z,84.75
2023-02-19T19:18:40.432Z,85.75
2023-02-19T19:21:09.918Z,86.80
2023-02-19T19:23:38.214Z,88.14
2023-02-19T19:26:07.043Z,87.90
2023-02-19T19:28:35.230Z,86.98
2023-02-19T19:31:03.557Z,87.59
2023-02-19T19:33:31.725Z,87.92
2023-02-19T19:35:59.895Z,88.11
2023-02-19T19:38:28.171Z,87.94
2023-02-19T19:40:56.417Z,88.12
2023-02-19T19:43:29.954Z,89.52
2023-02-19T19:45:59.009Z,89.31
2023-02-19T19:48:29.734Z,90.69
2023-02-19T19:50:58.049Z,91.28
2023-02-19T19:53:26.531Z,91.53
2023-02-19T19:55:54.807Z,90.60
2023-02-19T19:58:24.935Z,89.17
2023-02-19T20:00:53.565Z,88.82
2023-02-19T20:03:22.504Z,88.07
2023-02-19T20:05:51.378Z,87.68
2023-02-19T20:08:19.858Z,86.78
2023-02-19T20:10:48.249Z,86.14
2023-02-19T20:13:24.517Z,85.35
2023-02-19T20:15:52.830Z,85.86
2023-02-19T20:18:21.790Z,86.39
2023-02-19T20:20:49.954Z,85.88
2023-02-19T20:23:18.231Z,86.58
2023-02-19T20:25:46.401Z,87.53
2023-02-19T20:28:14.573Z,86.69
2023-02-19T20:30:43.927Z,86.30
2023-02-19T20:33:12.251Z,86.94
2023-02-19T20:35:41.045Z,86.43
2023-02-19T20:38:09.174Z,85.97
2023-02-19T20:40:37.416Z,85.57
2023-02-19T20:43:05.503Z,85.45
2023-02-19T20:45:33.921Z,84.09
2023-02-19T20:48:02.127Z,83.97
2023-02-19T20:50:30.503Z,84.22
2023-02-19T20:52:58.673Z,84.39
2023-02-19T20:55:26.842Z,84.03
2023-02-19T20:57:55.114Z,83.64
2023-02-19T21:00:23.908Z,83.50
2023-02-19T21:02:52.311Z,83.47
2023-02-19T21:05:20.865Z,84.34
2023-02-19T21:07:49.552Z,83.78
2023-02-19T21:10:18.338Z,83.32
2023-02-19T21:12:46.823Z,84.47
2023-02-19T21:15:15.510Z,84.55
2023-02-19T21:17:47.348Z,84.63
2023-02-19T21:20:19.810Z,84.54
2023-02-19T21:22:48.117Z,84.72
2023-02-19T21:25:16.290Z,84.48
2023-02-19T21:27:44.562Z,84.37
2023-02-19T21:30:13.506Z,85.08
2023-02-19T21:32:41.934Z,85.41
2023-02-19T21:35:10.418Z,85.39
2023-02-19T21:37:42.539Z,84.87
2023-02-19T21:40:12.325Z,85.59
2023-02-19T21:42:40.569Z,85.71
2023-02-19T21:45:09.058Z,85.39
2023-02-19T21:47:37.224Z,84.89
2023-02-19T21:50:06.448Z,85.29
2023-02-19T21:52:34.809Z,85.08
2023-02-19T21:55:03.117Z,84.76
2023-02-19T21:57:32.597Z,84.68
2023-02-19T22:00:00.846Z,83.72
2023-02-19T22:02:29.036Z,83.64
2023-02-19T22:04:57.917Z,83.64
2023-02-19T22:07:26.190Z,83.55
2023-02-19T22:09:54.465Z,83.47
2023-02-19T22:12:22.843Z,83.11
2023-02-19T22:14:51.841Z,82.66
2023-02-19T22:17:20.833Z,82.55
2023-02-19T22:19:48.983Z,82.87
2023-02-19T22:22:17.178Z,82.91
2023-02-19T22:24:45.454Z,82.87
2023-02-19T22:27:13.727Z,83.06
2023-02-19T22:29:41.927Z,83.84
2023-02-19T22:32:10.721Z,83.00
2023-02-19T22:34:40.914Z,83.25
2023-02-19T22:37:10.448Z,83.20
2023-02-19T22:39:40.369Z,83.05
2023-02-19T22:42:08.606Z,82.75
2023-02-19T22:44:36.996Z,82.43
2023-02-19T22:47:05.363Z,82.63
2023-02-19T22:49:33.638Z,82.81
2023-02-19T22:52:05.901Z,82.51
2023-02-19T22:54:37.262Z,82.30
2023-02-19T22:57:06.187Z,82.30
2023-02-19T22:59:34.527Z,82.11
2023-02-19T23:02:02.802Z,82.08
2023-02-19T23:04:31.423Z,82.10
2023-02-19T23:06:59.663Z,81.52
2023-02-19T23:09:29.484Z,81.91
2023-02-19T23:12:23.861Z,82.16
2023-02-19T23:14:52.240Z,82.40
2023-02-19T23:17:20.528Z,82.07
2023-02-19T23:19:48.693Z,82.07
2023-02-19T23:22:16.967Z,82.09
2023-02-19T23:24:45.138Z,82.14
2023-02-19T23:27:13.418Z,81.75
2023-02-19T23:29:41.594Z,81.66
2023-02-19T23:32:10.918Z,81.79
2023-02-19T23:34:39.053Z,81.49
2023-02-19T23:37:07.234Z,81.21
2023-02-19T23:39:35.519Z,81.50
2023-02-19T23:42:03.889Z,81.49
2023-02-19T23:44:32.266Z,81.63
2023-02-19T23:47:00.542Z,81.55
2023-02-19T23:49:28.713Z,80.96
2023-02-19T23:51:56.892Z,80.87
2023-02-19T23:54:25.058Z,81.03
2023-02-19T23:56:53.337Z,80.93
2023-02-19T23:59:21.610Z,80.74
